sensor_id;sensor_type;location;lat;lon;timestamp;P1;durP1;ratioP1;P2;durP2;ratioP2
5493;SDS011;2769;49.864;8.656;2022-08-21T00:01:38;8.87;;;5.60;;
5493;SDS011;2769;49.864;8.656;2022-08-21T00:04:25;8.23;;;5.80;;
5493;SDS011;2769;49.864;8.656;2022-08-21T00:07:14;10.90;;;5.77;;
5493;SDS011;2769;49.864;8.656;2022-08-21T00:10:01;8.00;;;5.43;;
5493;SDS011;2769;49.864;8.656;2022-08-21T00:12:48;11.37;;;5.57;;
5493;SDS011;2769;49.864;8.656;2022-08-21T00:15:36;15.53;;;5.83;;
5493;SDS011;2769;49.864;8.656;2022-08-21T00:18:25;9.80;;;5.97;;
5493;SDS011;2769;49.864;8.656;2022-08-21T00:21:12;7.83;;;5.90;;
5493;SDS011;2769;49.864;8.656;2022-08-21T00:23:59;7.83;;;5.80;;
5493;SDS011;2769;49.864;8.656;2022-08-21T00:26:46;11.00;;;6.27;;
5493;SDS011;2769;49.864;8.656;2022-08-21T00:29:33;9.37;;;6.00;;
5493;SDS011;2769;49.864;8.656;2022-08-21T00:32:20;6.67;;;5.83;;
5493;SDS011;2769;49.864;8.656;2022-08-21T00:35:10;10.93;;;6.37;;
5493;SDS011;2769;49.864;8.656;2022-08-21T00:37:59;8.53;;;6.17;;
5493;SDS011;2769;49.864;8.656;2022-08-21T00:40:47;10.47;;;6.50;;
5493;SDS011;2769;49.864;8.656;2022-08-21T00:43:37;10.53;;;6.10;;
5493;SDS011;2769;49.864;8.656;2022-08-21T00:46:24;10.60;;;6.83;;
5493;SDS011;2769;49.864;8.656;2022-08-21T00:49:12;13.13;;;5.97;;
5493;SDS011;2769;49.864;8.656;2022-08-21T00:52:00;7.67;;;5.67;;
5493;SDS011;2769;49.864;8.656;2022-08-21T00:54:47;9.57;;;6.63;;
5493;SDS011;2769;49.864;8.656;2022-08-21T00:57:36;8.90;;;6.00;;
5493;SDS011;2769;49.864;8.656;2022-08-21T01:00:29;9.33;;;5.80;;
5493;SDS011;2769;49.864;8.656;2022-08-21T01:03:24;9.77;;;5.87;;
5493;SDS011;2769;49.864;8.656;2022-08-21T01:06:10;10.93;;;6.70;;
5493;SDS011;2769;49.864;8.656;2022-08-21T01:08:59;7.07;;;6.00;;
5493;SDS011;2769;49.864;8.656;2022-08-21T01:11:45;12.00;;;5.97;;
5493;SDS011;2769;49.864;8.656;2022-08-21T01:14:32;8.33;;;6.23;;
5493;SDS011;2769;49.864;8.656;2022-08-21T01:17:19;9.30;;;6.47;;
5493;SDS011;2769;49.864;8.656;2022-08-21T01:20:08;12.77;;;6.23;;
5493;SDS011;2769;49.864;8.656;2022-08-21T01:22:58;10.13;;;6.10;;
5493;SDS011;2769;49.864;8.656;2022-08-21T01:25:44;8.53;;;5.30;;
5493;SDS011;2769;49.864;8.656;2022-08-21T01:28:31;6.03;;;5.47;;
5493;SDS011;2769;49.864;8.656;2022-08-21T01:31:23;9.60;;;6.37;;
5493;SDS011;2769;49.864;8.656;2022-08-21T01:34:12;7.03;;;5.63;;
5493;SDS011;2769;49.864;8.656;2022-08-21T01:37:00;6.97;;;4.90;;
5493;SDS011;2769;49.864;8.656;2022-08-21T01:39:49;6.67;;;5.90;;
5493;SDS011;2769;49.864;8.656;2022-08-21T01:42:36;10.67;;;6.07;;
5493;SDS011;2769;49.864;8.656;2022-08-21T01:45:23;9.13;;;6.10;;
5493;SDS011;2769;49.864;8.656;2022-08-21T01:48:10;9.73;;;5.77;;
5493;SDS011;2769;49.864;8.656;2022-08-21T01:50:56;8.93;;;6.13;;
5493;SDS011;2769;49.864;8.656;2022-08-21T01:53:43;11.57;;;6.13;;
5493;SDS011;2769;49.864;8.656;2022-08-21T01:56:36;8.20;;;5.90;;
5493;SDS011;2769;49.864;8.656;2022-08-21T01:59:23;17.73;;;6.40;;
5493;SDS011;2769;49.864;8.656;2022-08-21T02:02:10;14.17;;;6.10;;
5493;SDS011;2769;49.864;8.656;2022-08-21T02:04:57;9.63;;;5.90;;
5493;SDS011;2769;49.864;8.656;2022-08-21T02:07:45;6.57;;;5.80;;
5493;SDS011;2769;49.864;8.656;2022-08-21T02:10:33;8.20;;;5.80;;
5493;SDS011;2769;49.864;8.656;2022-08-21T02:13:21;11.33;;;6.27;;
5493;SDS011;2769;49.864;8.656;2022-08-21T02:16:08;10.63;;;6.10;;
5493;SDS011;2769;49.864;8.656;2022-08-21T02:19:01;9.83;;;5.80;;
5493;SDS011;2769;49.864;8.656;2022-08-21T02:21:48;10.73;;;4.93;;
5493;SDS011;2769;49.864;8.656;2022-08-21T02:24:34;5.33;;;4.80;;
5493;SDS011;2769;49.864;8.656;2022-08-21T02:27:39;9.00;;;5.60;;
5493;SDS011;2769;49.864;8.656;2022-08-21T02:30:30;13.10;;;6.00;;
5493;SDS011;2769;49.864;8.656;2022-08-21T02:33:18;11.00;;;5.90;;
5493;SDS011;2769;49.864;8.656;2022-08-21T02:36:06;7.83;;;4.93;;
5493;SDS011;2769;49.864;8.656;2022-08-21T02:38:54;13.97;;;5.80;;
5493;SDS011;2769;49.864;8.656;2022-08-21T02:41:41;9.43;;;5.90;;
5493;SDS011;2769;49.864;8.656;2022-08-21T02:44:28;17.40;;;5.80;;
5493;SDS011;2769;49.864;8.656;2022-08-21T02:47:19;9.03;;;5.70;;
5493;SDS011;2769;49.864;8.656;2022-08-21T02:50:06;8.70;;;5.47;;
5493;SDS011;2769;49.864;8.656;2022-08-21T02:52:53;11.23;;;5.10;;
5493;SDS011;2769;49.864;8.656;2022-08-21T02:55:41;11.63;;;5.40;;
5493;SDS011;2769;49.864;8.656;2022-08-21T02:58:29;9.20;;;5.30;;
5493;SDS011;2769;49.864;8.656;2022-08-21T03:01:17;12.90;;;5.70;;
5493;SDS011;2769;49.864;8.656;2022-08-21T03:04:06;7.33;;;5.53;;
5493;SDS011;2769;49.864;8.656;2022-08-21T03:06:52;15.83;;;6.37;;
5493;SDS011;2769;49.864;8.656;2022-08-21T03:09:39;5.40;;;4.90;;
5493;SDS011;2769;49.864;8.656;2022-08-21T03:12:39;8.93;;;5.27;;
5493;SDS011;2769;49.864;8.656;2022-08-21T03:15:26;11.53;;;5.37;;
5493;SDS011;2769;49.864;8.656;2022-08-21T03:18:13;11.43;;;5.03;;
5493;SDS011;2769;49.864;8.656;2022-08-21T03:21:01;9.53;;;5.50;;
5493;SDS011;2769;49.864;8.656;2022-08-21T03:23:49;6.73;;;5.80;;
5493;SDS011;2769;49.864;8.656;2022-08-21T03:26:35;9.57;;;6.07;;
5493;SDS011;2769;49.864;8.656;2022-08-21T03:29:25;10.00;;;5.70;;
5493;SDS011;2769;49.864;8.656;2022-08-21T03:32:11;10.80;;;5.97;;
5493;SDS011;2769;49.864;8.656;2022-08-21T03:34:58;7.10;;;5.63;;
5493;SDS011;2769;49.864;8.656;2022-08-21T03:37:47;13.77;;;5.70;;
5493;SDS011;2769;49.864;8.656;2022-08-21T03:40:34;8.50;;;6.50;;
5493;SDS011;2769;49.864;8.656;2022-08-21T03:43:21;13.27;;;6.20;;
5493;SDS011;2769;49.864;8.656;2022-08-21T03:46:07;9.10;;;5.87;;
5493;SDS011;2769;49.864;8.656;2022-08-21T03:48:53;10.47;;;5.80;;
5493;SDS011;2769;49.864;8.656;2022-08-21T03:51:40;9.20;;;5.53;;
5493;SDS011;2769;49.864;8.656;2022-08-21T03:54:28;8.53;;;5.83;;
5493;SDS011;2769;49.864;8.656;2022-08-21T03:57:15;14.23;;;6.60;;
5493;SDS011;2769;49.864;8.656;2022-08-21T04:00:02;10.50;;;5.90;;
5493;SDS011;2769;49.864;8.656;2022-08-21T04:02:52;10.90;;;5.47;;
5493;SDS011;2769;49.864;8.656;2022-08-21T04:05:40;9.27;;;5.90;;
5493;SDS011;2769;49.864;8.656;2022-08-21T04:08:27;11.10;;;6.60;;
5493;SDS011;2769;49.864;8.656;2022-08-21T04:11:16;10.83;;;6.83;;
5493;SDS011;2769;49.864;8.656;2022-08-21T04:14:02;13.57;;;5.97;;
5493;SDS011;2769;49.864;8.656;2022-08-21T04:16:49;10.97;;;6.30;;
5493;SDS011;2769;49.864;8.656;2022-08-21T04:19:35;10.10;;;5.87;;
5493;SDS011;2769;49.864;8.656;2022-08-21T04:22:22;10.07;;;6.33;;
5493;SDS011;2769;49.864;8.656;2022-08-21T04:25:08;10.60;;;6.50;;
5493;SDS011;2769;49.864;8.656;2022-08-21T04:27:57;8.30;;;5.77;;
5493;SDS011;2769;49.864;8.656;2022-08-21T04:30:43;8.70;;;5.60;;
5493;SDS011;2769;49.864;8.656;2022-08-21T04:33:30;9.30;;;6.43;;
5493;SDS011;2769;49.864;8.656;2022-08-21T04:36:17;12.10;;;6.50;;
5493;SDS011;2769;49.864;8.656;2022-08-21T04:39:08;10.77;;;5.97;;
5493;SDS011;2769;49.864;8.656;2022-08-21T04:41:55;8.30;;;6.10;;
5493;SDS011;2769;49.864;8.656;2022-08-21T04:44:43;17.70;;;6.40;;
5493;SDS011;2769;49.864;8.656;2022-08-21T04:47:29;11.67;;;6.30;;
5493;SDS011;2769;49.864;8.656;2022-08-21T04:50:37;14.07;;;6.10;;
5493;SDS011;2769;49.864;8.656;2022-08-21T04:53:29;12.73;;;5.80;;
5493;SDS011;2769;49.864;8.656;2022-08-21T04:56:20;13.17;;;6.40;;
5493;SDS011;2769;49.864;8.656;2022-08-21T04:59:11;7.90;;;5.83;;
5493;SDS011;2769;49.864;8.656;2022-08-21T05:02:02;10.70;;;5.53;;
5493;SDS011;2769;49.864;8.656;2022-08-21T05:04:51;9.23;;;5.67;;
5493;SDS011;2769;49.864;8.656;2022-08-21T05:07:40;13.10;;;5.53;;
5493;SDS011;2769;49.864;8.656;2022-08-21T05:10:28;10.40;;;5.57;;
5493;SDS011;2769;49.864;8.656;2022-08-21T05:13:17;7.63;;;5.50;;
5493;SDS011;2769;49.864;8.656;2022-08-21T05:16:04;9.63;;;5.33;;
5493;SDS011;2769;49.864;8.656;2022-08-21T05:18:53;11.20;;;6.57;;
5493;SDS011;2769;49.864;8.656;2022-08-21T05:21:40;7.70;;;5.03;;
5493;SDS011;2769;49.864;8.656;2022-08-21T05:24:28;9.00;;;5.27;;
5493;SDS011;2769;49.864;8.656;2022-08-21T05:27:15;7.97;;;5.40;;
5493;SDS011;2769;49.864;8.656;2022-08-21T05:30:02;10.23;;;5.63;;
5493;SDS011;2769;49.864;8.656;2022-08-21T05:32:55;11.00;;;5.20;;
5493;SDS011;2769;49.864;8.656;2022-08-21T05:35:43;19.47;;;5.53;;
5493;SDS011;2769;49.864;8.656;2022-08-21T05:38:32;10.63;;;5.07;;
5493;SDS011;2769;49.864;8.656;2022-08-21T05:41:19;12.83;;;5.30;;
5493;SDS011;2769;49.864;8.656;2022-08-21T05:44:06;8.40;;;5.07;;
5493;SDS011;2769;49.864;8.656;2022-08-21T05:46:54;14.30;;;5.10;;
5493;SDS011;2769;49.864;8.656;2022-08-21T05:49:41;11.37;;;5.13;;
5493;SDS011;2769;49.864;8.656;2022-08-21T05:52:28;11.40;;;5.10;;
5493;SDS011;2769;49.864;8.656;2022-08-21T05:55:15;17.47;;;5.93;;
5493;SDS011;2769;49.864;8.656;2022-08-21T05:58:02;7.53;;;4.67;;
5493;SDS011;2769;49.864;8.656;2022-08-21T06:00:49;6.50;;;4.77;;
5493;SDS011;2769;49.864;8.656;2022-08-21T06:03:38;8.67;;;4.17;;
5493;SDS011;2769;49.864;8.656;2022-08-21T06:06:26;8.20;;;5.10;;
5493;SDS011;2769;49.864;8.656;2022-08-21T06:09:14;8.20;;;5.00;;
5493;SDS011;2769;49.864;8.656;2022-08-21T06:12:02;9.67;;;4.10;;
5493;SDS011;2769;49.864;8.656;2022-08-21T06:14:50;8.90;;;4.80;;
5493;SDS011;2769;49.864;8.656;2022-08-21T06:17:37;7.97;;;4.70;;
5493;SDS011;2769;49.864;8.656;2022-08-21T06:20:23;10.03;;;4.50;;
5493;SDS011;2769;49.864;8.656;2022-08-21T06:23:10;13.30;;;4.80;;
5493;SDS011;2769;49.864;8.656;2022-08-21T06:25:58;10.20;;;4.40;;
5493;SDS011;2769;49.864;8.656;2022-08-21T06:28:45;8.87;;;5.10;;
5493;SDS011;2769;49.864;8.656;2022-08-21T06:31:31;11.00;;;4.57;;
5493;SDS011;2769;49.864;8.656;2022-08-21T06:34:18;9.87;;;4.20;;
5493;SDS011;2769;49.864;8.656;2022-08-21T06:37:05;8.50;;;5.03;;
5493;SDS011;2769;49.864;8.656;2022-08-21T06:39:52;10.17;;;5.20;;
5493;SDS011;2769;49.864;8.656;2022-08-21T06:42:40;16.53;;;5.73;;
5493;SDS011;2769;49.864;8.656;2022-08-21T06:45:27;9.77;;;4.67;;
5493;SDS011;2769;49.864;8.656;2022-08-21T06:48:16;8.30;;;5.03;;
5493;SDS011;2769;49.864;8.656;2022-08-21T06:51:03;16.10;;;4.63;;
5493;SDS011;2769;49.864;8.656;2022-08-21T06:53:50;13.50;;;5.10;;
5493;SDS011;2769;49.864;8.656;2022-08-21T06:56:37;9.30;;;5.23;;
5493;SDS011;2769;49.864;8.656;2022-08-21T06:59:25;9.53;;;4.80;;
5493;SDS011;2769;49.864;8.656;2022-08-21T07:02:12;7.13;;;4.70;;
5493;SDS011;2769;49.864;8.656;2022-08-21T07:04:58;9.40;;;4.83;;
5493;SDS011;2769;49.864;8.656;2022-08-21T07:07:59;9.53;;;4.80;;
5493;SDS011;2769;49.864;8.656;2022-08-21T07:10:45;12.03;;;4.80;;
5493;SDS011;2769;49.864;8.656;2022-08-21T07:13:33;11.37;;;5.20;;
5493;SDS011;2769;49.864;8.656;2022-08-21T07:16:22;13.10;;;5.83;;
5493;SDS011;2769;49.864;8.656;2022-08-21T07:19:09;9.73;;;4.97;;
5493;SDS011;2769;49.864;8.656;2022-08-21T07:21:57;8.80;;;5.23;;
5493;SDS011;2769;49.864;8.656;2022-08-21T07:24:46;8.00;;;5.60;;
5493;SDS011;2769;49.864;8.656;2022-08-21T07:27:33;8.47;;;5.70;;
5493;SDS011;2769;49.864;8.656;2022-08-21T07:30:19;9.63;;;5.50;;
5493;SDS011;2769;49.864;8.656;2022-08-21T07:33:07;10.53;;;6.17;;
5493;SDS011;2769;49.864;8.656;2022-08-21T07:35:54;9.73;;;5.73;;
5493;SDS011;2769;49.864;8.656;2022-08-21T07:38:41;11.07;;;6.67;;
5493;SDS011;2769;49.864;8.656;2022-08-21T07:41:28;10.43;;;6.23;;
5493;SDS011;2769;49.864;8.656;2022-08-21T07:44:16;15.43;;;6.83;;
5493;SDS011;2769;49.864;8.656;2022-08-21T07:47:03;9.63;;;7.90;;
5493;SDS011;2769;49.864;8.656;2022-08-21T07:49:51;11.80;;;7.70;;
5493;SDS011;2769;49.864;8.656;2022-08-21T07:52:38;15.97;;;7.20;;
5493;SDS011;2769;49.864;8.656;2022-08-21T07:55:25;10.97;;;7.00;;
5493;SDS011;2769;49.864;8.656;2022-08-21T07:58:11;11.43;;;7.67;;
5493;SDS011;2769;49.864;8.656;2022-08-21T08:00:58;16.53;;;7.57;;
5493;SDS011;2769;49.864;8.656;2022-08-21T08:03:45;9.87;;;6.70;;
5493;SDS011;2769;49.864;8.656;2022-08-21T08:06:34;10.47;;;6.03;;
5493;SDS011;2769;49.864;8.656;2022-08-21T08:09:21;5.97;;;5.03;;
5493;SDS011;2769;49.864;8.656;2022-08-21T08:12:07;12.17;;;5.43;;
5493;SDS011;2769;49.864;8.656;2022-08-21T08:14:55;8.13;;;5.47;;
5493;SDS011;2769;49.864;8.656;2022-08-21T08:17:43;5.57;;;5.07;;
5493;SDS011;2769;49.864;8.656;2022-08-21T08:20:35;7.77;;;4.70;;
5493;SDS011;2769;49.864;8.656;2022-08-21T08:23:22;9.97;;;4.60;;
5493;SDS011;2769;49.864;8.656;2022-08-21T08:26:10;4.33;;;4.03;;
5493;SDS011;2769;49.864;8.656;2022-08-21T08:28:57;10.80;;;5.17;;
5493;SDS011;2769;49.864;8.656;2022-08-21T08:31:43;6.30;;;5.20;;
5493;SDS011;2769;49.864;8.656;2022-08-21T08:34:30;8.60;;;5.30;;
5493;SDS011;2769;49.864;8.656;2022-08-21T08:37:16;8.37;;;5.00;;
5493;SDS011;2769;49.864;8.656;2022-08-21T08:40:09;7.77;;;4.97;;
5493;SDS011;2769;49.864;8.656;2022-08-21T08:42:58;6.73;;;4.30;;
5493;SDS011;2769;49.864;8.656;2022-08-21T08:45:46;8.97;;;4.90;;
5493;SDS011;2769;49.864;8.656;2022-08-21T08:48:40;4.70;;;4.30;;
5493;SDS011;2769;49.864;8.656;2022-08-21T08:51:39;11.93;;;6.07;;
5493;SDS011;2769;49.864;8.656;2022-08-21T08:54:30;7.40;;;5.93;;
5493;SDS011;2769;49.864;8.656;2022-08-21T08:57:22;9.27;;;6.40;;
5493;SDS011;2769;49.864;8.656;2022-08-21T09:00:11;12.03;;;6.10;;
5493;SDS011;2769;49.864;8.656;2022-08-21T09:03:01;7.70;;;5.90;;
5493;SDS011;2769;49.864;8.656;2022-08-21T09:05:50;9.83;;;5.40;;
5493;SDS011;2769;49.864;8.656;2022-08-21T09:08:45;7.40;;;5.50;;
5493;SDS011;2769;49.864;8.656;2022-08-21T09:11:37;9.67;;;4.20;;
5493;SDS011;2769;49.864;8.656;2022-08-21T09:14:39;6.20;;;3.90;;
5493;SDS011;2769;49.864;8.656;2022-08-21T09:17:44;7.03;;;4.10;;
5493;SDS011;2769;49.864;8.656;2022-08-21T09:20:56;8.10;;;3.63;;
5493;SDS011;2769;49.864;8.656;2022-08-21T09:23:52;5.73;;;2.83;;
5493;SDS011;2769;49.864;8.656;2022-08-21T09:26:45;3.80;;;3.30;;
5493;SDS011;2769;49.864;8.656;2022-08-21T09:29:39;4.43;;;3.53;;
5493;SDS011;2769;49.864;8.656;2022-08-21T09:32:29;6.97;;;4.00;;
5493;SDS011;2769;49.864;8.656;2022-08-21T09:35:22;6.53;;;4.60;;
5493;SDS011;2769;49.864;8.656;2022-08-21T09:38:10;5.77;;;4.13;;
5493;SDS011;2769;49.864;8.656;2022-08-21T09:41:00;5.00;;;4.30;;
5493;SDS011;2769;49.864;8.656;2022-08-21T09:43:52;8.73;;;4.43;;
5493;SDS011;2769;49.864;8.656;2022-08-21T09:46:49;8.60;;;3.83;;
5493;SDS011;2769;49.864;8.656;2022-08-21T09:49:38;6.10;;;3.67;;
5493;SDS011;2769;49.864;8.656;2022-08-21T09:52:26;6.40;;;3.90;;
5493;SDS011;2769;49.864;8.656;2022-08-21T09:55:19;7.57;;;4.00;;
5493;SDS011;2769;49.864;8.656;2022-08-21T09:58:30;7.13;;;3.70;;
5493;SDS011;2769;49.864;8.656;2022-08-21T10:01:20;6.07;;;3.90;;
5493;SDS011;2769;49.864;8.656;2022-08-21T10:04:10;8.00;;;3.80;;
5493;SDS011;2769;49.864;8.656;2022-08-21T10:07:05;9.20;;;3.83;;
5493;SDS011;2769;49.864;8.656;2022-08-21T10:10:00;5.20;;;3.40;;
5493;SDS011;2769;49.864;8.656;2022-08-21T10:12:49;6.20;;;3.53;;
5493;SDS011;2769;49.864;8.656;2022-08-21T10:15:47;3.80;;;3.40;;
5493;SDS011;2769;49.864;8.656;2022-08-21T10:18:41;7.90;;;3.73;;
5493;SDS011;2769;49.864;8.656;2022-08-21T10:21:35;5.93;;;3.17;;
5493;SDS011;2769;49.864;8.656;2022-08-21T10:24:33;7.30;;;4.10;;
5493;SDS011;2769;49.864;8.656;2022-08-21T10:27:27;11.00;;;3.43;;
5493;SDS011;2769;49.864;8.656;2022-08-21T10:30:25;3.70;;;2.77;;
5493;SDS011;2769;49.864;8.656;2022-08-21T10:33:28;6.00;;;2.30;;
5493;SDS011;2769;49.864;8.656;2022-08-21T10:36:26;4.30;;;2.70;;
5493;SDS011;2769;49.864;8.656;2022-08-21T10:39:23;8.77;;;2.73;;
5493;SDS011;2769;49.864;8.656;2022-08-21T10:42:31;3.80;;;2.67;;
5493;SDS011;2769;49.864;8.656;2022-08-21T10:45:25;4.20;;;2.73;;
5493;SDS011;2769;49.864;8.656;2022-08-21T10:48:25;6.00;;;2.50;;
5493;SDS011;2769;49.864;8.656;2022-08-21T10:51:15;3.87;;;2.90;;
5493;SDS011;2769;49.864;8.656;2022-08-21T10:54:16;4.90;;;2.43;;
5493;SDS011;2769;49.864;8.656;2022-08-21T10:57:22;4.93;;;2.57;;
5493;SDS011;2769;49.864;8.656;2022-08-21T11:00:17;3.97;;;2.60;;
5493;SDS011;2769;49.864;8.656;2022-08-21T11:03:07;4.90;;;2.67;;
5493;SDS011;2769;49.864;8.656;2022-08-21T11:05:59;6.57;;;2.70;;
5493;SDS011;2769;49.864;8.656;2022-08-21T11:08:50;3.78;;;2.63;;
5493;SDS011;2769;49.864;8.656;2022-08-21T11:11:44;3.15;;;2.85;;
5493;SDS011;2769;49.864;8.656;2022-08-21T11:14:57;4.05;;;2.83;;
5493;SDS011;2769;49.864;8.656;2022-08-21T11:17:47;3.83;;;2.35;;
5493;SDS011;2769;49.864;8.656;2022-08-21T11:20:42;4.70;;;2.50;;
5493;SDS011;2769;49.864;8.656;2022-08-21T11:23:39;3.03;;;2.50;;
5493;SDS011;2769;49.864;8.656;2022-08-21T11:26:32;5.30;;;3.23;;
5493;SDS011;2769;49.864;8.656;2022-08-21T11:29:27;2.83;;;2.53;;
5493;SDS011;2769;49.864;8.656;2022-08-21T11:32:24;7.93;;;2.87;;
5493;SDS011;2769;49.864;8.656;2022-08-21T11:35:32;6.20;;;2.93;;
5493;SDS011;2769;49.864;8.656;2022-08-21T11:38:28;3.63;;;2.77;;
5493;SDS011;2769;49.864;8.656;2022-08-21T11:41:23;3.10;;;2.80;;
5493;SDS011;2769;49.864;8.656;2022-08-21T11:44:15;3.43;;;2.67;;
5493;SDS011;2769;49.864;8.656;2022-08-21T11:47:10;3.77;;;3.00;;
5493;SDS011;2769;49.864;8.656;2022-08-21T11:50:05;2.80;;;2.60;;
5493;SDS011;2769;49.864;8.656;2022-08-21T11:53:20;6.40;;;2.90;;
5493;SDS011;2769;49.864;8.656;2022-08-21T11:56:14;3.87;;;2.77;;
5493;SDS011;2769;49.864;8.656;2022-08-21T11:59:06;4.40;;;2.50;;
5493;SDS011;2769;49.864;8.656;2022-08-21T12:01:56;2.78;;;2.45;;
5493;SDS011;2769;49.864;8.656;2022-08-21T12:04:45;8.00;;;2.70;;
5493;SDS011;2769;49.864;8.656;2022-08-21T12:07:37;3.25;;;2.75;;
5493;SDS011;2769;49.864;8.656;2022-08-21T12:10:30;3.60;;;2.58;;
5493;SDS011;2769;49.864;8.656;2022-08-21T12:13:23;3.90;;;2.77;;
5493;SDS011;2769;49.864;8.656;2022-08-21T12:16:29;4.03;;;2.60;;
5493;SDS011;2769;49.864;8.656;2022-08-21T12:19:27;2.75;;;2.13;;
5493;SDS011;2769;49.864;8.656;2022-08-21T12:22:15;4.97;;;2.63;;
5493;SDS011;2769;49.864;8.656;2022-08-21T12:25:05;4.93;;;2.43;;
5493;SDS011;2769;49.864;8.656;2022-08-21T12:28:07;4.80;;;2.77;;
5493;SDS011;2769;49.864;8.656;2022-08-21T12:30:56;2.90;;;2.60;;
5493;SDS011;2769;49.864;8.656;2022-08-21T12:33:42;6.20;;;2.70;;
5493;SDS011;2769;49.864;8.656;2022-08-21T12:36:41;3.03;;;2.77;;
5493;SDS011;2769;49.864;8.656;2022-08-21T12:39:30;7.10;;;2.87;;
5493;SDS011;2769;49.864;8.656;2022-08-21T12:42:22;7.03;;;2.60;;
5493;SDS011;2769;49.864;8.656;2022-08-21T12:45:11;3.50;;;2.60;;
5493;SDS011;2769;49.864;8.656;2022-08-21T12:48:06;2.63;;;2.42;;
5493;SDS011;2769;49.864;8.656;2022-08-21T12:50:58;4.63;;;2.33;;
5493;SDS011;2769;49.864;8.656;2022-08-21T12:53:56;2.40;;;2.00;;
5493;SDS011;2769;49.864;8.656;2022-08-21T12:56:44;3.78;;;2.38;;
5493;SDS011;2769;49.864;8.656;2022-08-21T12:59:46;2.00;;;1.90;;
5493;SDS011;2769;49.864;8.656;2022-08-21T13:02:42;5.15;;;2.45;;
5493;SDS011;2769;49.864;8.656;2022-08-21T13:05:34;2.88;;;2.10;;
5493;SDS011;2769;49.864;8.656;2022-08-21T13:08:22;5.03;;;2.47;;
5493;SDS011;2769;49.864;8.656;2022-08-21T13:11:10;3.83;;;2.42;;
5493;SDS011;2769;49.864;8.656;2022-08-21T13:14:00;2.60;;;2.40;;
5493;SDS011;2769;49.864;8.656;2022-08-21T13:16:53;2.97;;;2.05;;
5493;SDS011;2769;49.864;8.656;2022-08-21T13:19:40;3.67;;;2.38;;
5493;SDS011;2769;49.864;8.656;2022-08-21T13:22:27;2.35;;;2.05;;
5493;SDS011;2769;49.864;8.656;2022-08-21T13:25:20;3.35;;;2.22;;
5493;SDS011;2769;49.864;8.656;2022-08-21T13:28:11;6.78;;;2.03;;
5493;SDS011;2769;49.864;8.656;2022-08-21T13:30:59;2.65;;;1.88;;
5493;SDS011;2769;49.864;8.656;2022-08-21T13:33:48;3.17;;;2.40;;
5493;SDS011;2769;49.864;8.656;2022-08-21T13:36:36;3.53;;;2.10;;
5493;SDS011;2769;49.864;8.656;2022-08-21T13:39:25;4.72;;;2.00;;
5493;SDS011;2769;49.864;8.656;2022-08-21T13:42:12;3.05;;;2.00;;
5493;SDS011;2769;49.864;8.656;2022-08-21T13:44:59;4.72;;;1.90;;
5493;SDS011;2769;49.864;8.656;2022-08-21T13:47:46;4.43;;;2.30;;
5493;SDS011;2769;49.864;8.656;2022-08-21T13:50:35;3.47;;;2.15;;
5493;SDS011;2769;49.864;8.656;2022-08-21T13:53:27;5.50;;;2.10;;
5493;SDS011;2769;49.864;8.656;2022-08-21T13:56:21;3.90;;;2.20;;
5493;SDS011;2769;49.864;8.656;2022-08-21T13:59:09;3.95;;;2.20;;
5493;SDS011;2769;49.864;8.656;2022-08-21T14:01:56;3.60;;;2.22;;
5493;SDS011;2769;49.864;8.656;2022-08-21T14:04:50;4.10;;;2.10;;
5493;SDS011;2769;49.864;8.656;2022-08-21T14:07:41;4.78;;;2.40;;
5493;SDS011;2769;49.864;8.656;2022-08-21T14:10:29;2.60;;;2.40;;
5493;SDS011;2769;49.864;8.656;2022-08-21T14:13:24;4.60;;;1.90;;
5493;SDS011;2769;49.864;8.656;2022-08-21T14:16:22;5.00;;;2.15;;
5493;SDS011;2769;49.864;8.656;2022-08-21T14:19:17;2.22;;;2.00;;
5493;SDS011;2769;49.864;8.656;2022-08-21T14:22:21;4.95;;;2.17;;
5493;SDS011;2769;49.864;8.656;2022-08-21T14:25:15;2.83;;;1.92;;
5493;SDS011;2769;49.864;8.656;2022-08-21T14:28:18;2.03;;;1.92;;
5493;SDS011;2769;49.864;8.656;2022-08-21T14:31:13;3.53;;;2.35;;
5493;SDS011;2769;49.864;8.656;2022-08-21T14:34:03;2.10;;;1.90;;
5493;SDS011;2769;49.864;8.656;2022-08-21T14:37:03;2.08;;;1.73;;
5493;SDS011;2769;49.864;8.656;2022-08-21T14:39:50;1.70;;;1.60;;
5493;SDS011;2769;49.864;8.656;2022-08-21T14:42:38;1.98;;;1.88;;
5493;SDS011;2769;49.864;8.656;2022-08-21T14:45:27;1.75;;;1.60;;
5493;SDS011;2769;49.864;8.656;2022-08-21T14:48:16;1.90;;;1.73;;
5493;SDS011;2769;49.864;8.656;2022-08-21T14:51:03;4.55;;;1.73;;
5493;SDS011;2769;49.864;8.656;2022-08-21T14:53:49;3.95;;;1.70;;
5493;SDS011;2769;49.864;8.656;2022-08-21T14:56:36;2.38;;;1.90;;
5493;SDS011;2769;49.864;8.656;2022-08-21T14:59:24;3.73;;;2.00;;
5493;SDS011;2769;49.864;8.656;2022-08-21T15:02:11;2.43;;;2.20;;
5493;SDS011;2769;49.864;8.656;2022-08-21T15:04:58;3.07;;;2.20;;
5493;SDS011;2769;49.864;8.656;2022-08-21T15:07:45;4.20;;;2.50;;
5493;SDS011;2769;49.864;8.656;2022-08-21T15:10:31;4.43;;;2.50;;
5493;SDS011;2769;49.864;8.656;2022-08-21T15:13:31;3.20;;;2.60;;
5493;SDS011;2769;49.864;8.656;2022-08-21T15:16:20;4.87;;;2.20;;
5493;SDS011;2769;49.864;8.656;2022-08-21T15:19:07;2.43;;;2.23;;
5493;SDS011;2769;49.864;8.656;2022-08-21T15:21:53;2.70;;;2.47;;
5493;SDS011;2769;49.864;8.656;2022-08-21T15:24:40;3.03;;;2.47;;
5493;SDS011;2769;49.864;8.656;2022-08-21T15:27:27;3.57;;;2.23;;
5493;SDS011;2769;49.864;8.656;2022-08-21T15:30:14;3.53;;;2.33;;
5493;SDS011;2769;49.864;8.656;2022-08-21T15:33:03;3.03;;;2.30;;
5493;SDS011;2769;49.864;8.656;2022-08-21T15:35:50;2.57;;;2.00;;
5493;SDS011;2769;49.864;8.656;2022-08-21T15:38:37;4.20;;;2.40;;
5493;SDS011;2769;49.864;8.656;2022-08-21T15:41:23;4.20;;;2.53;;
5493;SDS011;2769;49.864;8.656;2022-08-21T15:44:10;3.27;;;2.40;;
5493;SDS011;2769;49.864;8.656;2022-08-21T15:46:58;5.50;;;2.40;;
5493;SDS011;2769;49.864;8.656;2022-08-21T15:49:46;3.80;;;2.80;;
5493;SDS011;2769;49.864;8.656;2022-08-21T15:52:33;3.47;;;2.50;;
5493;SDS011;2769;49.864;8.656;2022-08-21T15:55:20;3.93;;;2.40;;
5493;SDS011;2769;49.864;8.656;2022-08-21T15:58:07;3.87;;;2.20;;
5493;SDS011;2769;49.864;8.656;2022-08-21T16:01:00;4.50;;;2.77;;
5493;SDS011;2769;49.864;8.656;2022-08-21T16:03:48;3.73;;;2.60;;
5493;SDS011;2769;49.864;8.656;2022-08-21T16:06:39;4.23;;;3.13;;
5493;SDS011;2769;49.864;8.656;2022-08-21T16:09:40;3.20;;;2.47;;
5493;SDS011;2769;49.864;8.656;2022-08-21T16:12:28;6.53;;;2.30;;
5493;SDS011;2769;49.864;8.656;2022-08-21T16:15:17;3.43;;;2.50;;
5493;SDS011;2769;49.864;8.656;2022-08-21T16:18:05;7.13;;;2.83;;
5493;SDS011;2769;49.864;8.656;2022-08-21T16:20:52;8.63;;;2.47;;
5493;SDS011;2769;49.864;8.656;2022-08-21T16:23:40;4.43;;;2.50;;
5493;SDS011;2769;49.864;8.656;2022-08-21T16:26:27;9.57;;;2.63;;
5493;SDS011;2769;49.864;8.656;2022-08-21T16:29:14;6.27;;;2.70;;
5493;SDS011;2769;49.864;8.656;2022-08-21T16:32:01;4.27;;;2.80;;
5493;SDS011;2769;49.864;8.656;2022-08-21T16:34:49;3.83;;;2.77;;
5493;SDS011;2769;49.864;8.656;2022-08-21T16:37:35;6.73;;;2.50;;
5493;SDS011;2769;49.864;8.656;2022-08-21T16:40:24;4.57;;;2.63;;
5493;SDS011;2769;49.864;8.656;2022-08-21T16:43:12;6.90;;;3.20;;
5493;SDS011;2769;49.864;8.656;2022-08-21T16:45:59;4.57;;;2.40;;
5493;SDS011;2769;49.864;8.656;2022-08-21T16:48:47;8.33;;;3.10;;
5493;SDS011;2769;49.864;8.656;2022-08-21T16:51:34;3.80;;;3.03;;
5493;SDS011;2769;49.864;8.656;2022-08-21T16:54:20;3.27;;;2.53;;
5493;SDS011;2769;49.864;8.656;2022-08-21T16:57:09;9.50;;;3.57;;
5493;SDS011;2769;49.864;8.656;2022-08-21T16:59:56;9.83;;;6.50;;
5493;SDS011;2769;49.864;8.656;2022-08-21T17:02:43;4.57;;;3.60;;
5493;SDS011;2769;49.864;8.656;2022-08-21T17:05:32;67.20;;;45.17;;
5493;SDS011;2769;49.864;8.656;2022-08-21T17:08:18;60.13;;;41.17;;
5493;SDS011;2769;49.864;8.656;2022-08-21T17:11:06;17.30;;;10.07;;
5493;SDS011;2769;49.864;8.656;2022-08-21T17:14:22;12.20;;;7.67;;
5493;SDS011;2769;49.864;8.656;2022-08-21T17:17:09;127.50;;;76.23;;
5493;SDS011;2769;49.864;8.656;2022-08-21T17:19:56;233.53;;;136.57;;
5493;SDS011;2769;49.864;8.656;2022-08-21T17:22:43;114.53;;;64.90;;
5493;SDS011;2769;49.864;8.656;2022-08-21T17:25:29;4.30;;;3.10;;
5493;SDS011;2769;49.864;8.656;2022-08-21T17:28:18;101.53;;;59.03;;
5493;SDS011;2769;49.864;8.656;2022-08-21T17:31:09;125.60;;;74.93;;